sensor_id;sensor_type;location;lat;lon;timestamp;P1;durP1;ratioP1;P2;durP2;ratioP2
59824;SDS011;45703;50.898;6.054;2023-08-21T00:01:51;6.15;;;2.30;;
59824;SDS011;45703;50.898;6.054;2023-08-21T00:04:17;7.15;;;2.55;;
59824;SDS011;45703;50.898;6.054;2023-08-21T00:06:42;8.82;;;2.40;;
59824;SDS011;45703;50.898;6.054;2023-08-21T00:09:08;7.25;;;2.70;;
59824;SDS011;45703;50.898;6.054;2023-08-21T00:11:34;7.45;;;3.00;;
59824;SDS011;45703;50.898;6.054;2023-08-21T00:14:00;6.90;;;2.47;;
59824;SDS011;45703;50.898;6.054;2023-08-21T00:16:25;6.03;;;2.42;;
59824;SDS011;45703;50.898;6.054;2023-08-21T00:18:52;7.32;;;2.65;;
59824;SDS011;45703;50.898;6.054;2023-08-21T00:21:18;7.60;;;2.63;;
59824;SDS011;45703;50.898;6.054;2023-08-21T00:23:44;6.80;;;2.88;;
59824;SDS011;45703;50.898;6.054;2023-08-21T00:26:09;7.88;;;2.70;;
59824;SDS011;45703;50.898;6.054;2023-08-21T00:28:34;7.05;;;2.70;;
59824;SDS011;45703;50.898;6.054;2023-08-21T00:31:01;6.97;;;2.63;;
59824;SDS011;45703;50.898;6.054;2023-08-21T00:33:27;6.40;;;2.38;;
59824;SDS011;45703;50.898;6.054;2023-08-21T00:35:54;7.97;;;2.90;;
59824;SDS011;45703;50.898;6.054;2023-08-21T00:38:19;7.03;;;2.50;;
59824;SDS011;45703;50.898;6.054;2023-08-21T00:40:44;6.75;;;2.67;;
59824;SDS011;45703;50.898;6.054;2023-08-21T00:43:10;6.93;;;2.50;;
59824;SDS011;45703;50.898;6.054;2023-08-21T00:45:35;6.57;;;2.42;;
59824;SDS011;45703;50.898;6.054;2023-08-21T00:48:06;8.40;;;2.40;;
59824;SDS011;45703;50.898;6.054;2023-08-21T00:50:32;8.98;;;2.60;;
59824;SDS011;45703;50.898;6.054;2023-08-21T00:52:57;8.23;;;2.15;;
59824;SDS011;45703;50.898;6.054;2023-08-21T00:55:23;6.60;;;2.35;;
59824;SDS011;45703;50.898;6.054;2023-08-21T00:57:49;6.93;;;2.40;;
59824;SDS011;45703;50.898;6.054;2023-08-21T01:00:14;5.38;;;1.80;;
59824;SDS011;45703;50.898;6.054;2023-08-21T01:02:40;7.80;;;2.38;;
59824;SDS011;45703;50.898;6.054;2023-08-21T01:05:05;6.60;;;2.33;;
59824;SDS011;45703;50.898;6.054;2023-08-21T01:07:32;8.02;;;2.67;;
59824;SDS011;45703;50.898;6.054;2023-08-21T01:10:11;6.82;;;2.47;;
59824;SDS011;45703;50.898;6.054;2023-08-21T01:15:26;7.95;;;2.28;;
59824;SDS011;45703;50.898;6.054;2023-08-21T01:17:52;8.07;;;2.63;;
59824;SDS011;45703;50.898;6.054;2023-08-21T01:20:18;6.53;;;2.38;;
59824;SDS011;45703;50.898;6.054;2023-08-21T01:22:44;6.90;;;2.42;;
59824;SDS011;45703;50.898;6.054;2023-08-21T01:25:11;7.93;;;2.60;;
59824;SDS011;45703;50.898;6.054;2023-08-21T01:27:37;5.65;;;2.30;;
59824;SDS011;45703;50.898;6.054;2023-08-21T01:30:05;7.10;;;2.50;;
59824;SDS011;45703;50.898;6.054;2023-08-21T01:32:34;6.40;;;2.30;;
59824;SDS011;45703;50.898;6.054;2023-08-21T01:35:14;8.43;;;2.60;;
59824;SDS011;45703;50.898;6.054;2023-08-21T01:37:40;7.35;;;2.25;;
59824;SDS011;45703;50.898;6.054;2023-08-21T01:40:06;6.05;;;2.40;;
59824;SDS011;45703;50.898;6.054;2023-08-21T01:42:32;8.10;;;2.50;;
59824;SDS011;45703;50.898;6.054;2023-08-21T01:44:57;8.00;;;2.55;;
59824;SDS011;45703;50.898;6.054;2023-08-21T01:47:23;7.63;;;2.33;;
59824;SDS011;45703;50.898;6.054;2023-08-21T01:49:48;6.05;;;2.30;;
59824;SDS011;45703;50.898;6.054;2023-08-21T01:52:17;6.30;;;2.10;;
59824;SDS011;45703;50.898;6.054;2023-08-21T01:54:43;8.30;;;2.30;;
59824;SDS011;45703;50.898;6.054;2023-08-21T01:57:08;7.57;;;2.75;;
59824;SDS011;45703;50.898;6.054;2023-08-21T01:59:33;5.88;;;2.28;;
59824;SDS011;45703;50.898;6.054;2023-08-21T02:01:59;7.45;;;2.55;;
59824;SDS011;45703;50.898;6.054;2023-08-21T02:04:24;5.80;;;2.08;;
59824;SDS011;45703;50.898;6.054;2023-08-21T02:06:50;7.15;;;2.45;;
59824;SDS011;45703;50.898;6.054;2023-08-21T02:09:15;8.88;;;2.50;;
59824;SDS011;45703;50.898;6.054;2023-08-21T02:11:40;6.93;;;1.90;;
59824;SDS011;45703;50.898;6.054;2023-08-21T02:14:06;7.25;;;2.47;;
59824;SDS011;45703;50.898;6.054;2023-08-21T02:16:31;7.35;;;2.70;;
59824;SDS011;45703;50.898;6.054;2023-08-21T02:18:57;6.88;;;2.63;;
59824;SDS011;45703;50.898;6.054;2023-08-21T02:21:23;7.32;;;2.45;;
59824;SDS011;45703;50.898;6.054;2023-08-21T02:23:48;6.05;;;2.30;;
59824;SDS011;45703;50.898;6.054;2023-08-21T02:26:13;6.50;;;2.58;;
59824;SDS011;45703;50.898;6.054;2023-08-21T02:28:39;6.05;;;2.38;;
59824;SDS011;45703;50.898;6.054;2023-08-21T02:31:04;7.55;;;2.60;;
59824;SDS011;45703;50.898;6.054;2023-08-21T02:33:30;6.72;;;2.70;;
59824;SDS011;45703;50.898;6.054;2023-08-21T02:35:56;7.05;;;2.72;;
59824;SDS011;45703;50.898;6.054;2023-08-21T02:38:21;7.10;;;2.40;;
59824;SDS011;45703;50.898;6.054;2023-08-21T02:40:47;7.00;;;2.22;;
59824;SDS011;45703;50.898;6.054;2023-08-21T02:43:12;6.18;;;2.13;;
59824;SDS011;45703;50.898;6.054;2023-08-21T02:45:38;6.70;;;2.58;;
59824;SDS011;45703;50.898;6.054;2023-08-21T02:48:03;6.50;;;2.10;;
59824;SDS011;45703;50.898;6.054;2023-08-21T02:50:29;5.60;;;2.10;;
59824;SDS011;45703;50.898;6.054;2023-08-21T02:52:54;6.65;;;2.38;;
59824;SDS011;45703;50.898;6.054;2023-08-21T02:55:20;6.97;;;2.10;;
59824;SDS011;45703;50.898;6.054;2023-08-21T02:57:46;8.88;;;2.40;;
59824;SDS011;45703;50.898;6.054;2023-08-21T03:00:11;7.10;;;2.58;;
59824;SDS011;45703;50.898;6.054;2023-08-21T03:02:37;7.05;;;2.42;;
59824;SDS011;45703;50.898;6.054;2023-08-21T03:05:03;7.55;;;2.30;;
59824;SDS011;45703;50.898;6.054;2023-08-21T03:07:29;7.22;;;2.25;;
59824;SDS011;45703;50.898;6.054;2023-08-21T03:09:55;5.65;;;2.17;;
59824;SDS011;45703;50.898;6.054;2023-08-21T03:12:20;7.53;;;2.50;;
59824;SDS011;45703;50.898;6.054;2023-08-21T03:14:46;6.25;;;2.45;;
59824;SDS011;45703;50.898;6.054;2023-08-21T03:17:11;5.97;;;2.35;;
59824;SDS011;45703;50.898;6.054;2023-08-21T03:19:36;6.43;;;2.25;;
59824;SDS011;45703;50.898;6.054;2023-08-21T03:22:02;8.73;;;2.90;;
59824;SDS011;45703;50.898;6.054;2023-08-21T03:24:28;8.35;;;2.47;;
59824;SDS011;45703;50.898;6.054;2023-08-21T03:26:53;6.53;;;2.25;;
59824;SDS011;45703;50.898;6.054;2023-08-21T03:29:18;6.28;;;2.47;;
59824;SDS011;45703;50.898;6.054;2023-08-21T03:31:46;6.00;;;2.25;;
59824;SDS011;45703;50.898;6.054;2023-08-21T03:34:14;7.38;;;2.22;;
59824;SDS011;45703;50.898;6.054;2023-08-21T03:36:39;6.20;;;2.40;;
59824;SDS011;45703;50.898;6.054;2023-08-21T03:39:04;6.40;;;2.70;;
59824;SDS011;45703;50.898;6.054;2023-08-21T03:41:30;8.88;;;2.40;;
59824;SDS011;45703;50.898;6.054;2023-08-21T03:43:56;6.88;;;2.92;;
59824;SDS011;45703;50.898;6.054;2023-08-21T03:46:21;6.93;;;2.70;;
59824;SDS011;45703;50.898;6.054;2023-08-21T03:48:47;6.88;;;2.40;;
59824;SDS011;45703;50.898;6.054;2023-08-21T03:51:12;7.75;;;2.50;;
59824;SDS011;45703;50.898;6.054;2023-08-21T03:53:37;8.23;;;2.42;;
59824;SDS011;45703;50.898;6.054;2023-08-21T03:56:03;8.27;;;2.65;;
59824;SDS011;45703;50.898;6.054;2023-08-21T03:58:29;6.97;;;2.30;;
59824;SDS011;45703;50.898;6.054;2023-08-21T04:00:54;6.93;;;2.60;;
59824;SDS011;45703;50.898;6.054;2023-08-21T04:03:20;9.05;;;2.88;;
59824;SDS011;45703;50.898;6.054;2023-08-21T04:05:46;6.90;;;2.58;;
59824;SDS011;45703;50.898;6.054;2023-08-21T04:08:11;7.25;;;2.55;;
59824;SDS011;45703;50.898;6.054;2023-08-21T04:10:37;7.15;;;2.45;;
59824;SDS011;45703;50.898;6.054;2023-08-21T04:13:04;8.43;;;3.00;;
59824;SDS011;45703;50.898;6.054;2023-08-21T04:15:30;8.63;;;3.22;;
59824;SDS011;45703;50.898;6.054;2023-08-21T04:17:56;9.57;;;3.70;;
59824;SDS011;45703;50.898;6.054;2023-08-21T04:20:21;8.38;;;3.00;;
59824;SDS011;45703;50.898;6.054;2023-08-21T04:22:47;9.57;;;3.65;;
59824;SDS011;45703;50.898;6.054;2023-08-21T04:25:13;7.50;;;3.00;;
59824;SDS011;45703;50.898;6.054;2023-08-21T04:27:38;7.78;;;3.08;;
59824;SDS011;45703;50.898;6.054;2023-08-21T04:30:04;7.10;;;3.05;;
59824;SDS011;45703;50.898;6.054;2023-08-21T04:32:30;10.82;;;3.55;;
59824;SDS011;45703;50.898;6.054;2023-08-21T04:34:55;8.23;;;3.08;;
59824;SDS011;45703;50.898;6.054;2023-08-21T04:37:21;8.45;;;3.15;;
59824;SDS011;45703;50.898;6.054;2023-08-21T04:39:50;7.30;;;3.20;;
59824;SDS011;45703;50.898;6.054;2023-08-21T04:42:16;7.23;;;3.07;;
59824;SDS011;45703;50.898;6.054;2023-08-21T04:44:41;8.40;;;3.75;;
59824;SDS011;45703;50.898;6.054;2023-08-21T04:47:20;7.80;;;3.65;;
59824;SDS011;45703;50.898;6.054;2023-08-21T04:49:51;10.18;;;3.58;;
59824;SDS011;45703;50.898;6.054;2023-08-21T04:52:18;9.18;;;3.17;;
59824;SDS011;45703;50.898;6.054;2023-08-21T04:54:50;8.25;;;3.20;;
59824;SDS011;45703;50.898;6.054;2023-08-21T04:57:16;8.18;;;3.70;;
59824;SDS011;45703;50.898;6.054;2023-08-21T04:59:42;8.32;;;3.75;;
59824;SDS011;45703;50.898;6.054;2023-08-21T05:02:07;7.03;;;3.08;;
59824;SDS011;45703;50.898;6.054;2023-08-21T05:04:35;7.90;;;3.13;;
59824;SDS011;45703;50.898;6.054;2023-08-21T05:07:01;8.65;;;3.20;;
59824;SDS011;45703;50.898;6.054;2023-08-21T05:09:26;8.38;;;3.20;;
59824;SDS011;45703;50.898;6.054;2023-08-21T05:11:52;7.88;;;2.83;;
59824;SDS011;45703;50.898;6.054;2023-08-21T05:14:17;9.15;;;3.92;;
59824;SDS011;45703;50.898;6.054;2023-08-21T05:16:44;7.05;;;3.17;;
59824;SDS011;45703;50.898;6.054;2023-08-21T05:19:10;6.75;;;2.97;;
59824;SDS011;45703;50.898;6.054;2023-08-21T05:21:36;13.10;;;3.30;;
59824;SDS011;45703;50.898;6.054;2023-08-21T05:24:01;7.65;;;3.10;;
59824;SDS011;45703;50.898;6.054;2023-08-21T05:26:26;6.97;;;3.00;;
59824;SDS011;45703;50.898;6.054;2023-08-21T05:28:52;7.72;;;3.22;;
59824;SDS011;45703;50.898;6.054;2023-08-21T05:31:17;7.93;;;3.42;;
59824;SDS011;45703;50.898;6.054;2023-08-21T05:33:43;10.70;;;3.17;;
59824;SDS011;45703;50.898;6.054;2023-08-21T05:36:08;6.97;;;2.80;;
59824;SDS011;45703;50.898;6.054;2023-08-21T05:38:33;9.05;;;2.90;;
59824;SDS011;45703;50.898;6.054;2023-08-21T05:40:59;6.80;;;3.00;;
59824;SDS011;45703;50.898;6.054;2023-08-21T05:43:25;8.75;;;3.10;;
59824;SDS011;45703;50.898;6.054;2023-08-21T05:45:53;9.05;;;3.13;;
59824;SDS011;45703;50.898;6.054;2023-08-21T05:48:21;9.93;;;3.17;;
59824;SDS011;45703;50.898;6.054;2023-08-21T05:50:52;7.03;;;3.10;;
59824;SDS011;45703;50.898;6.054;2023-08-21T05:53:20;9.13;;;3.83;;
59824;SDS011;45703;50.898;6.054;2023-08-21T05:55:53;9.10;;;3.85;;
59824;SDS011;45703;50.898;6.054;2023-08-21T05:58:19;7.85;;;3.60;;
59824;SDS011;45703;50.898;6.054;2023-08-21T06:01:02;8.15;;;3.33;;
59824;SDS011;45703;50.898;6.054;2023-08-21T06:03:34;8.05;;;3.70;;
59824;SDS011;45703;50.898;6.054;2023-08-21T06:05:59;9.10;;;3.47;;
59824;SDS011;45703;50.898;6.054;2023-08-21T06:08:27;7.32;;;3.47;;
59824;SDS011;45703;50.898;6.054;2023-08-21T06:11:00;6.78;;;3.00;;
59824;SDS011;45703;50.898;6.054;2023-08-21T06:13:36;8.15;;;2.63;;
59824;SDS011;45703;50.898;6.054;2023-08-21T06:16:31;7.30;;;3.03;;
59824;SDS011;45703;50.898;6.054;2023-08-21T06:19:10;8.40;;;3.40;;
59824;SDS011;45703;50.898;6.054;2023-08-21T06:21:35;7.28;;;3.03;;
59824;SDS011;45703;50.898;6.054;2023-08-21T06:24:01;8.18;;;3.17;;
59824;SDS011;45703;50.898;6.054;2023-08-21T06:26:26;8.45;;;3.30;;
59824;SDS011;45703;50.898;6.054;2023-08-21T06:28:54;8.07;;;2.83;;
59824;SDS011;45703;50.898;6.054;2023-08-21T06:31:22;7.00;;;3.30;;
59824;SDS011;45703;50.898;6.054;2023-08-21T06:33:47;9.55;;;3.28;;
59824;SDS011;45703;50.898;6.054;2023-08-21T06:36:12;8.40;;;3.22;;
59824;SDS011;45703;50.898;6.054;2023-08-21T06:38:38;9.38;;;3.42;;
59824;SDS011;45703;50.898;6.054;2023-08-21T06:41:03;8.25;;;3.47;;
59824;SDS011;45703;50.898;6.054;2023-08-21T06:43:28;8.65;;;3.47;;
59824;SDS011;45703;50.898;6.054;2023-08-21T06:45:54;8.32;;;3.00;;
59824;SDS011;45703;50.898;6.054;2023-08-21T06:48:19;8.65;;;3.85;;
59824;SDS011;45703;50.898;6.054;2023-08-21T06:50:45;9.50;;;3.13;;
59824;SDS011;45703;50.898;6.054;2023-08-21T06:53:10;8.13;;;3.45;;
59824;SDS011;45703;50.898;6.054;2023-08-21T06:55:35;8.07;;;2.90;;
59824;SDS011;45703;50.898;6.054;2023-08-21T06:58:01;9.90;;;4.07;;
59824;SDS011;45703;50.898;6.054;2023-08-21T07:00:26;7.82;;;2.97;;
59824;SDS011;45703;50.898;6.054;2023-08-21T07:02:51;7.80;;;3.60;;
59824;SDS011;45703;50.898;6.054;2023-08-21T07:05:17;9.52;;;3.80;;
59824;SDS011;45703;50.898;6.054;2023-08-21T07:07:42;10.27;;;3.90;;
59824;SDS011;45703;50.898;6.054;2023-08-21T07:10:08;9.80;;;3.85;;
59824;SDS011;45703;50.898;6.054;2023-08-21T07:12:33;10.23;;;3.78;;
59824;SDS011;45703;50.898;6.054;2023-08-21T07:14:59;8.73;;;4.10;;
59824;SDS011;45703;50.898;6.054;2023-08-21T07:17:24;10.80;;;4.10;;
59824;SDS011;45703;50.898;6.054;2023-08-21T07:19:50;10.85;;;4.40;;
59824;SDS011;45703;50.898;6.054;2023-08-21T07:22:17;10.75;;;4.10;;
59824;SDS011;45703;50.898;6.054;2023-08-21T07:24:44;10.23;;;4.40;;
59824;SDS011;45703;50.898;6.054;2023-08-21T07:27:10;9.75;;;4.03;;
59824;SDS011;45703;50.898;6.054;2023-08-21T07:29:35;10.35;;;3.97;;
59824;SDS011;45703;50.898;6.054;2023-08-21T07:32:01;8.35;;;3.83;;
59824;SDS011;45703;50.898;6.054;2023-08-21T07:34:26;9.55;;;4.15;;
59824;SDS011;45703;50.898;6.054;2023-08-21T07:36:52;11.23;;;4.60;;
59824;SDS011;45703;50.898;6.054;2023-08-21T07:39:17;10.27;;;3.85;;
59824;SDS011;45703;50.898;6.054;2023-08-21T07:41:52;8.55;;;3.97;;
59824;SDS011;45703;50.898;6.054;2023-08-21T07:44:19;10.00;;;4.20;;
59824;SDS011;45703;50.898;6.054;2023-08-21T07:46:47;9.23;;;3.90;;
59824;SDS011;45703;50.898;6.054;2023-08-21T07:52:49;13.93;;;4.70;;
59824;SDS011;45703;50.898;6.054;2023-08-21T07:56:01;12.85;;;3.80;;
59824;SDS011;45703;50.898;6.054;2023-08-21T07:58:38;10.70;;;4.03;;
59824;SDS011;45703;50.898;6.054;2023-08-21T08:01:08;10.85;;;4.68;;
59824;SDS011;45703;50.898;6.054;2023-08-21T08:03:34;10.75;;;4.38;;
59824;SDS011;45703;50.898;6.054;2023-08-21T08:06:05;9.32;;;3.90;;
59824;SDS011;45703;50.898;6.054;2023-08-21T08:08:36;11.40;;;4.82;;
59824;SDS011;45703;50.898;6.054;2023-08-21T08:11:06;10.30;;;4.03;;
59824;SDS011;45703;50.898;6.054;2023-08-21T08:13:40;7.78;;;3.40;;
59824;SDS011;45703;50.898;6.054;2023-08-21T08:16:13;9.32;;;3.85;;
59824;SDS011;45703;50.898;6.054;2023-08-21T08:18:38;11.55;;;4.40;;
59824;SDS011;45703;50.898;6.054;2023-08-21T08:21:06;9.25;;;3.67;;
59824;SDS011;45703;50.898;6.054;2023-08-21T08:23:32;11.55;;;3.90;;
59824;SDS011;45703;50.898;6.054;2023-08-21T08:25:57;9.80;;;4.13;;
59824;SDS011;45703;50.898;6.054;2023-08-21T08:28:25;9.02;;;4.13;;
59824;SDS011;45703;50.898;6.054;2023-08-21T08:30:54;9.57;;;3.80;;
59824;SDS011;45703;50.898;6.054;2023-08-21T08:33:25;10.27;;;4.97;;
59824;SDS011;45703;50.898;6.054;2023-08-21T08:36:06;12.60;;;4.63;;
59824;SDS011;45703;50.898;6.054;2023-08-21T08:38:32;11.60;;;5.40;;
59824;SDS011;45703;50.898;6.054;2023-08-21T08:41:10;9.88;;;4.55;;
59824;SDS011;45703;50.898;6.054;2023-08-21T08:43:49;8.93;;;4.30;;
59824;SDS011;45703;50.898;6.054;2023-08-21T08:46:19;10.35;;;4.57;;
59824;SDS011;45703;50.898;6.054;2023-08-21T08:48:44;10.27;;;4.40;;
59824;SDS011;45703;50.898;6.054;2023-08-21T08:51:20;9.52;;;4.75;;
59824;SDS011;45703;50.898;6.054;2023-08-21T08:53:47;10.90;;;4.93;;
59824;SDS011;45703;50.898;6.054;2023-08-21T08:56:13;10.95;;;5.47;;
59824;SDS011;45703;50.898;6.054;2023-08-21T08:58:41;11.13;;;5.00;;
59824;SDS011;45703;50.898;6.054;2023-08-21T09:01:09;10.13;;;5.28;;
59824;SDS011;45703;50.898;6.054;2023-08-21T09:03:45;12.35;;;5.65;;
59824;SDS011;45703;50.898;6.054;2023-08-21T09:06:21;15.98;;;6.78;;
59824;SDS011;45703;50.898;6.054;2023-08-21T09:08:55;10.68;;;6.15;;
59824;SDS011;45703;50.898;6.054;2023-08-21T09:11:24;9.68;;;5.40;;
59824;SDS011;45703;50.898;6.054;2023-08-21T09:14:00;11.18;;;6.53;;
59824;SDS011;45703;50.898;6.054;2023-08-21T09:16:30;10.50;;;5.53;;
59824;SDS011;45703;50.898;6.054;2023-08-21T09:19:04;14.77;;;7.82;;
59824;SDS011;45703;50.898;6.054;2023-08-21T09:21:32;16.02;;;8.18;;
59824;SDS011;45703;50.898;6.054;2023-08-21T09:24:13;15.38;;;7.47;;
59824;SDS011;45703;50.898;6.054;2023-08-21T09:26:40;12.05;;;5.68;;
59824;SDS011;45703;50.898;6.054;2023-08-21T09:29:06;11.65;;;6.07;;
59824;SDS011;45703;50.898;6.054;2023-08-21T09:31:36;11.52;;;4.78;;
59824;SDS011;45703;50.898;6.054;2023-08-21T09:34:03;9.52;;;4.72;;
59824;SDS011;45703;50.898;6.054;2023-08-21T09:36:34;11.00;;;5.00;;
59824;SDS011;45703;50.898;6.054;2023-08-21T09:39:05;11.30;;;4.95;;
59824;SDS011;45703;50.898;6.054;2023-08-21T09:41:31;9.80;;;5.10;;
59824;SDS011;45703;50.898;6.054;2023-08-21T09:44:00;9.57;;;4.70;;
59824;SDS011;45703;50.898;6.054;2023-08-21T09:46:28;11.32;;;4.95;;
59824;SDS011;45703;50.898;6.054;2023-08-21T09:48:54;9.07;;;4.78;;
59824;SDS011;45703;50.898;6.054;2023-08-21T09:51:28;12.23;;;5.18;;
59824;SDS011;45703;50.898;6.054;2023-08-21T09:54:00;10.23;;;4.30;;
59824;SDS011;45703;50.898;6.054;2023-08-21T09:56:28;9.55;;;4.53;;
59824;SDS011;45703;50.898;6.054;2023-08-21T09:58:54;9.05;;;4.70;;
59824;SDS011;45703;50.898;6.054;2023-08-21T10:01:20;9.27;;;4.18;;
59824;SDS011;45703;50.898;6.054;2023-08-21T10:03:47;10.90;;;4.65;;
59824;SDS011;45703;50.898;6.054;2023-08-21T10:06:15;9.68;;;4.30;;
59824;SDS011;45703;50.898;6.054;2023-08-21T10:08:45;9.60;;;4.80;;
59824;SDS011;45703;50.898;6.054;2023-08-21T10:11:14;10.30;;;4.32;;
59824;SDS011;45703;50.898;6.054;2023-08-21T10:13:52;9.68;;;3.80;;
59824;SDS011;45703;50.898;6.054;2023-08-21T10:16:20;8.75;;;3.97;;
59824;SDS011;45703;50.898;6.054;2023-08-21T10:18:46;11.07;;;4.68;;
59824;SDS011;45703;50.898;6.054;2023-08-21T10:21:15;9.05;;;4.57;;
59824;SDS011;45703;50.898;6.054;2023-08-21T10:23:42;10.30;;;4.03;;
59824;SDS011;45703;50.898;6.054;2023-08-21T10:26:11;8.82;;;3.95;;
59824;SDS011;45703;50.898;6.054;2023-08-21T10:29:10;9.65;;;4.70;;
59824;SDS011;45703;50.898;6.054;2023-08-21T10:31:38;8.88;;;4.05;;
59824;SDS011;45703;50.898;6.054;2023-08-21T10:34:14;9.25;;;3.97;;
59824;SDS011;45703;50.898;6.054;2023-08-21T10:39:13;9.85;;;4.07;;
59824;SDS011;45703;50.898;6.054;2023-08-21T10:41:55;10.43;;;4.20;;
59824;SDS011;45703;50.898;6.054;2023-08-21T10:44:36;7.70;;;3.25;;
59824;SDS011;45703;50.898;6.054;2023-08-21T10:47:20;10.60;;;3.47;;
59824;SDS011;45703;50.898;6.054;2023-08-21T10:49:52;9.00;;;3.58;;
59824;SDS011;45703;50.898;6.054;2023-08-21T10:52:29;9.35;;;3.58;;
59824;SDS011;45703;50.898;6.054;2023-08-21T10:54:57;9.02;;;3.05;;
59824;SDS011;45703;50.898;6.054;2023-08-21T10:57:24;8.55;;;3.10;;
59824;SDS011;45703;50.898;6.054;2023-08-21T10:59:51;7.93;;;3.05;;
59824;SDS011;45703;50.898;6.054;2023-08-21T11:02:18;9.35;;;2.88;;
59824;SDS011;45703;50.898;6.054;2023-08-21T11:04:44;7.68;;;2.95;;
59824;SDS011;45703;50.898;6.054;2023-08-21T11:07:09;7.53;;;2.60;;
59824;SDS011;45703;50.898;6.054;2023-08-21T11:09:36;7.43;;;2.70;;
59824;SDS011;45703;50.898;6.054;2023-08-21T11:12:17;8.85;;;2.65;;
59824;SDS011;45703;50.898;6.054;2023-08-21T11:14:58;8.13;;;2.63;;
59824;SDS011;45703;50.898;6.054;2023-08-21T11:17:30;8.00;;;2.53;;
59824;SDS011;45703;50.898;6.054;2023-08-21T11:20:03;7.13;;;2.67;;
59824;SDS011;45703;50.898;6.054;2023-08-21T11:22:37;8.88;;;2.83;;
59824;SDS011;45703;50.898;6.054;2023-08-21T11:25:05;6.80;;;2.45;;
59824;SDS011;45703;50.898;6.054;2023-08-21T11:27:40;7.65;;;2.78;;
59824;SDS011;45703;50.898;6.054;2023-08-21T11:30:51;10.88;;;2.42;;
59824;SDS011;45703;50.898;6.054;2023-08-21T11:33:17;8.82;;;2.72;;
59824;SDS011;45703;50.898;6.054;2023-08-21T11:35:43;8.27;;;2.88;;
59824;SDS011;45703;50.898;6.054;2023-08-21T11:38:16;8.65;;;2.60;;
59824;SDS011;45703;50.898;6.054;2023-08-21T11:40:58;7.10;;;2.40;;
59824;SDS011;45703;50.898;6.054;2023-08-21T11:43:37;6.43;;;2.40;;
59824;SDS011;45703;50.898;6.054;2023-08-21T11:46:04;6.82;;;2.67;;
59824;SDS011;45703;50.898;6.054;2023-08-21T11:48:37;6.18;;;2.10;;
59824;SDS011;45703;50.898;6.054;2023-08-21T11:51:03;6.65;;;2.25;;
59824;SDS011;45703;50.898;6.054;2023-08-21T11:53:35;7.55;;;2.50;;
59824;SDS011;45703;50.898;6.054;2023-08-21T11:56:03;7.03;;;2.33;;
59824;SDS011;45703;50.898;6.054;2023-08-21T11:58:33;8.77;;;2.70;;
59824;SDS011;45703;50.898;6.054;2023-08-21T12:01:03;6.72;;;2.38;;
59824;SDS011;45703;50.898;6.054;2023-08-21T12:03:29;7.93;;;2.30;;
59824;SDS011;45703;50.898;6.054;2023-08-21T12:05:56;8.95;;;2.47;;
59824;SDS011;45703;50.898;6.054;2023-08-21T12:08:21;8.02;;;2.88;;
59824;SDS011;45703;50.898;6.054;2023-08-21T12:10:50;7.90;;;2.67;;
59824;SDS011;45703;50.898;6.054;2023-08-21T12:13:19;8.35;;;2.90;;
59824;SDS011;45703;50.898;6.054;2023-08-21T12:15:44;6.55;;;2.70;;
59824;SDS011;45703;50.898;6.054;2023-08-21T12:18:10;9.10;;;2.70;;
59824;SDS011;45703;50.898;6.054;2023-08-21T12:20:35;7.22;;;2.47;;
59824;SDS011;45703;50.898;6.054;2023-08-21T12:23:00;8.98;;;2.60;;
59824;SDS011;45703;50.898;6.054;2023-08-21T12:25:26;8.05;;;2.47;;
59824;SDS011;45703;50.898;6.054;2023-08-21T12:27:51;6.93;;;2.47;;
59824;SDS011;45703;50.898;6.054;2023-08-21T12:30:17;6.45;;;2.22;;
59824;SDS011;45703;50.898;6.054;2023-08-21T12:32:42;9.43;;;2.70;;
59824;SDS011;45703;50.898;6.054;2023-08-21T12:35:07;6.13;;;1.98;;
59824;SDS011;45703;50.898;6.054;2023-08-21T12:37:36;7.22;;;2.40;;
59824;SDS011;45703;50.898;6.054;2023-08-21T12:40:02;6.28;;;1.98;;
59824;SDS011;45703;50.898;6.054;2023-08-21T12:42:27;6.97;;;1.83;;
59824;SDS011;45703;50.898;6.054;2023-08-21T12:44:53;8.15;;;2.05;;
59824;SDS011;45703;50.898;6.054;2023-08-21T12:47:18;8.02;;;2.30;;
59824;SDS011;45703;50.898;6.054;2023-08-21T12:49:44;9.13;;;2.72;;
59824;SDS011;45703;50.898;6.054;2023-08-21T12:52:09;10.40;;;2.28;;
59824;SDS011;45703;50.898;6.054;2023-08-21T12:54:36;7.70;;;2.60;;
59824;SDS011;45703;50.898;6.054;2023-08-21T12:57:02;8.55;;;2.28;;
59824;SDS011;45703;50.898;6.054;2023-08-21T12:59:27;7.88;;;2.35;;
59824;SDS011;45703;50.898;6.054;2023-08-21T13:01:52;7.25;;;2.47;;
59824;SDS011;45703;50.898;6.054;2023-08-21T13:04:18;6.85;;;2.47;;
59824;SDS011;45703;50.898;6.054;2023-08-21T13:06:43;7.53;;;2.42;;
59824;SDS011;45703;50.898;6.054;2023-08-21T13:09:08;8.45;;;2.72;;
59824;SDS011;45703;50.898;6.054;2023-08-21T13:11:34;6.78;;;2.22;;
59824;SDS011;45703;50.898;6.054;2023-08-21T13:13:59;7.95;;;2.50;;
59824;SDS011;45703;50.898;6.054;2023-08-21T13:16:25;9.27;;;2.67;;
59824;SDS011;45703;50.898;6.054;2023-08-21T13:18:50;8.95;;;2.78;;
59824;SDS011;45703;50.898;6.054;2023-08-21T13:21:15;7.68;;;2.50;;
59824;SDS011;45703;50.898;6.054;2023-08-21T13:23:41;7.38;;;2.20;;
59824;SDS011;45703;50.898;6.054;2023-08-21T13:26:06;6.97;;;2.00;;
59824;SDS011;45703;50.898;6.054;2023-08-21T13:28:31;6.78;;;2.08;;
59824;SDS011;45703;50.898;6.054;2023-08-21T13:30:57;7.22;;;2.38;;
59824;SDS011;45703;50.898;6.054;2023-08-21T13:33:23;7.80;;;2.13;;
59824;SDS011;45703;50.898;6.054;2023-08-21T13:35:48;7.80;;;2.40;;
59824;SDS011;45703;50.898;6.054;2023-08-21T13:38:14;8.07;;;2.53;;
59824;SDS011;45703;50.898;6.054;2023-08-21T13:40:39;7.88;;;2.38;;
59824;SDS011;45703;50.898;6.054;2023-08-21T13:43:07;7.93;;;2.22;;
59824;SDS011;45703;50.898;6.054;2023-08-21T13:45:34;7.60;;;2.20;;
59824;SDS011;45703;50.898;6.054;2023-08-21T13:48:00;6.95;;;2.10;;
59824;SDS011;45703;50.898;6.054;2023-08-21T13:50:25;6.28;;;2.00;;
59824;SDS011;45703;50.898;6.054;2023-08-21T13:52:51;7.13;;;2.15;;
59824;SDS011;45703;50.898;6.054;2023-08-21T13:55:16;7.28;;;2.05;;
59824;SDS011;45703;50.898;6.054;2023-08-21T13:57:42;8.57;;;2.33;;
59824;SDS011;45703;50.898;6.054;2023-08-21T14:00:08;8.30;;;2.10;;
59824;SDS011;45703;50.898;6.054;2023-08-21T14:05:04;6.60;;;2.30;;
59824;SDS011;45703;50.898;6.054;2023-08-21T14:07:31;8.40;;;2.33;;
59824;SDS011;45703;50.898;6.054;2023-08-21T14:09:57;8.68;;;2.10;;
59824;SDS011;45703;50.898;6.054;2023-08-21T14:12:22;6.47;;;1.98;;
59824;SDS011;45703;50.898;6.054;2023-08-21T14:14:48;6.25;;;1.92;;
59824;SDS011;45703;50.898;6.054;2023-08-21T14:17:13;7.82;;;2.28;;
59824;SDS011;45703;50.898;6.054;2023-08-21T14:19:38;8.15;;;2.10;;
59824;SDS011;45703;50.898;6.054;2023-08-21T14:22:04;7.55;;;1.98;;
59824;SDS011;45703;50.898;6.054;2023-08-21T14:24:30;6.78;;;2.22;;
59824;SDS011;45703;50.898;6.054;2023-08-21T14:26:55;7.20;;;1.85;;
59824;SDS011;45703;50.898;6.054;2023-08-21T14:29:21;6.93;;;2.22;;
59824;SDS011;45703;50.898;6.054;2023-08-21T14:31:46;9.30;;;2.30;;
59824;SDS011;45703;50.898;6.054;2023-08-21T14:34:13;6.90;;;2.08;;
59824;SDS011;45703;50.898;6.054;2023-08-21T14:36:39;6.93;;;2.25;;
59824;SDS011;45703;50.898;6.054;2023-08-21T14:39:05;8.38;;;2.28;;
59824;SDS011;45703;50.898;6.054;2023-08-21T14:41:31;7.25;;;2.45;;
59824;SDS011;45703;50.898;6.054;2023-08-21T14:43:56;7.32;;;2.20;;
59824;SDS011;45703;50.898;6.054;2023-08-21T14:46:22;7.18;;;2.40;;
59824;SDS011;45703;50.898;6.054;2023-08-21T14:48:47;6.90;;;2.80;;
59824;SDS011;45703;50.898;6.054;2023-08-21T14:51:12;7.53;;;2.25;;
59824;SDS011;45703;50.898;6.054;2023-08-21T14:53:38;7.00;;;2.33;;
59824;SDS011;45703;50.898;6.054;2023-08-21T14:56:03;6.25;;;2.42;;
59824;SDS011;45703;50.898;6.054;2023-08-21T14:58:29;7.28;;;2.65;;
59824;SDS011;45703;50.898;6.054;2023-08-21T15:00:55;7.63;;;2.45;;